createdAt,value
2022-11-17T00:00:44.610Z,71.55
2022-11-17T00:03:15.881Z,71.09
2022-11-17T00:05:47.294Z,71.56
2022-11-17T00:08:16.275Z,71.03
2022-11-17T00:10:44.524Z,71.67
2022-11-17T00:13:32.790Z,71.00
2022-11-17T00:16:01.132Z,70.82
2022-11-17T00:18:47.291Z,70.99
2022-11-17T00:21:21.807Z,71.37
2022-11-17T00:23:50.932Z,70.95
2022-11-17T00:26:22.073Z,70.77
2022-11-17T00:28:57.899Z,70.92
2022-11-17T00:31:45.354Z,70.77
2022-11-17T00:34:17.685Z,70.49
2022-11-17T00:36:48.132Z,70.54
2022-11-17T00:39:18.033Z,70.10
2022-11-17T00:41:46.569Z,70.00
2022-11-17T00:44:35.461Z,70.04
2022-11-17T00:47:11.997Z,70.27
2022-11-17T00:49:40.750Z,70.32
2022-11-17T01:00:21.780Z,69.80
2022-11-17T01:03:17.851Z,70.06
2022-11-17T01:06:09.614Z,70.49
2022-11-17T01:08:51.256Z,69.48
2022-11-17T01:11:28.403Z,69.64
2022-11-17T01:14:51.124Z,69.38
2022-11-17T01:17:52.853Z,69.06
2022-11-17T01:20:30.118Z,69.30
2022-11-17T01:23:04.853Z,69.04
2022-11-17T01:25:43.985Z,69.47
2022-11-17T01:28:41.888Z,69.51
2022-11-17T01:31:18.229Z,68.66
2022-11-17T01:34:11.347Z,68.84
2022-11-17T01:37:08.861Z,68.79
2022-11-17T01:39:44.556Z,68.48
2022-11-17T01:42:37.069Z,68.37
2022-11-17T01:45:07.496Z,67.84
2022-11-17T01:47:52.722Z,68.21
2022-11-17T01:50:39.357Z,67.87
2022-11-17T01:53:40.502Z,67.16
2022-11-17T01:56:30.603Z,67.63
2022-11-17T01:59:12.866Z,67.37
2022-11-17T02:01:57.495Z,67.84
2022-11-17T02:04:36.658Z,68.16
2022-11-17T02:07:29.057Z,68.25
2022-11-17T02:10:00.453Z,67.72
2022-11-17T02:12:40.738Z,67.92
2022-11-17T02:15:36.105Z,67.90
2022-11-17T04:08:04.302Z,71.24
2022-11-17T04:10:52.786Z,70.37
2022-11-17T04:13:38.572Z,69.78
2022-11-17T04:16:06.545Z,69.74
2022-11-17T04:18:39.644Z,68.97
2022-11-17T04:21:13.455Z,68.60
2022-11-17T04:23:43.444Z,68.15
2022-11-17T04:26:29.848Z,68.44
2022-11-17T04:28:57.947Z,68.58
2022-11-17T04:31:28.013Z,67.76
2022-11-17T04:33:59.618Z,67.88
2022-11-17T04:36:29.666Z,68.14
2022-11-17T04:39:09.931Z,67.73
2022-11-17T04:42:02.490Z,67.07
2022-11-17T04:44:33.063Z,67.86
2022-11-17T04:47:12.246Z,67.11
2022-11-17T04:49:44.724Z,67.71
2022-11-17T04:52:17.823Z,67.07
2022-11-17T04:54:50.813Z,66.97
2022-11-17T04:57:19.467Z,67.27
2022-11-17T04:59:47.673Z,66.73
2022-11-17T05:02:18.235Z,67.42
2022-11-17T05:04:58.822Z,67.27
2022-11-17T05:07:29.467Z,67.28
2022-11-17T05:09:59.652Z,67.10
2022-11-17T05:12:45.664Z,67.10
2022-11-17T05:15:39.233Z,67.12
2022-11-17T05:18:11.544Z,67.25
2022-11-17T05:20:46.895Z,67.48
2022-11-17T05:23:32.547Z,67.60
2022-11-17T05:26:02.550Z,67.23
2022-11-17T05:28:35.058Z,67.32
2022-11-17T05:31:03.789Z,67.51
2022-11-17T05:33:37.882Z,67.07
2022-11-17T05:36:07.335Z,67.46
2022-11-17T05:38:41.206Z,67.56
2022-11-17T05:41:11.194Z,67.70
2022-11-17T05:43:44.680Z,68.28
2022-11-17T05:46:15.314Z,67.46
2022-11-17T05:48:48.462Z,67.66
2022-11-17T05:51:17.168Z,67.54
2022-11-17T05:53:48.407Z,68.36
2022-11-17T05:56:46.522Z,67.82
2022-11-17T06:05:15.670Z,68.06
2022-11-17T06:07:48.679Z,68.15
2022-11-17T06:10:19.943Z,67.77
2022-11-17T06:12:52.417Z,68.24
2022-11-17T06:15:27.556Z,67.82
2022-11-17T06:20:52.299Z,67.67
2022-11-17T06:23:33.494Z,68.05
2022-11-17T06:26:06.589Z,67.91
2022-11-17T06:28:41.551Z,67.54
2022-11-17T06:31:13.973Z,67.83
2022-11-17T06:33:47.696Z,67.62
2022-11-17T06:36:21.294Z,67.95
2022-11-17T06:38:51.665Z,67.98
2022-11-17T06:41:20.558Z,67.73
2022-11-17T06:43:52.064Z,67.96
2022-11-17T06:46:21.389Z,67.89
2022-11-17T06:48:54.559Z,67.50
2022-11-17T06:51:26.044Z,67.35
2022-11-17T06:53:54.587Z,67.49
2022-11-17T06:56:24.196Z,67.44
2022-11-17T06:59:02.243Z,68.13
2022-11-17T07:01:30.886Z,67.35
2022-11-17T07:04:00.322Z,67.18
2022-11-17T07:06:29.034Z,67.48
2022-11-17T07:08:57.806Z,67.50
2022-11-17T07:14:42.026Z,67.80
2022-11-17T07:17:20.521Z,67.51
2022-11-17T07:19:53.705Z,67.59
2022-11-17T07:22:31.993Z,66.87
2022-11-17T07:24:59.955Z,66.94
2022-11-17T07:27:31.379Z,66.12
2022-11-17T07:30:07.722Z,67.02
2022-11-17T07:49:21.008Z,66.66
2022-11-17T07:52:04.627Z,65.63
2022-11-17T07:54:35.733Z,66.15
2022-11-17T07:57:05.027Z,66.03
2022-11-17T07:59:36.202Z,65.93
2022-11-17T08:02:39.361Z,65.98
2022-11-17T08:05:18.267Z,65.52
2022-11-17T08:07:57.081Z,65.45
2022-11-17T08:10:33.616Z,65.55
2022-11-17T08:21:34.058Z,65.25
2022-11-17T08:24:06.967Z,64.67
2022-11-17T08:26:41.889Z,64.89
2022-11-17T08:29:17.226Z,64.69
2022-11-17T08:31:47.995Z,65.29
2022-11-17T08:34:20.124Z,64.85
2022-11-17T08:36:51.482Z,65.07
2022-11-17T08:39:23.310Z,64.48
2022-11-17T08:41:54.470Z,64.64
2022-11-17T08:44:22.914Z,64.47
2022-11-17T08:46:51.573Z,65.62
2022-11-17T08:49:20.881Z,64.69
2022-11-17T08:51:48.987Z,64.02
2022-11-17T08:54:18.167Z,63.85
2022-11-17T08:56:46.662Z,63.73
2022-11-17T08:59:15.589Z,63.45
2022-11-17T09:01:43.989Z,63.15
2022-11-17T09:04:12.019Z,62.87
2022-11-17T09:06:43.037Z,63.11
2022-11-17T09:09:11.531Z,63.51
2022-11-17T09:11:39.514Z,63.24
2022-11-17T09:14:08.398Z,63.62
2022-11-17T09:16:36.750Z,63.21
2022-11-17T09:19:04.702Z,63.60
2022-11-17T09:21:33.892Z,63.35
2022-11-17T09:24:03.667Z,62.86
2022-11-17T09:26:31.674Z,63.11
2022-11-17T09:29:02.321Z,62.77
2022-11-17T09:31:31.524Z,62.90
2022-11-17T09:34:03.807Z,62.64
2022-11-17T09:36:33.104Z,62.62
2022-11-17T09:39:01.219Z,62.52
2022-11-17T09:41:35.692Z,62.52
2022-11-17T09:44:16.909Z,62.90
2022-11-17T09:47:02.009Z,62.61
2022-11-17T09:49:41.896Z,63.02
2022-11-17T09:52:17.054Z,62.72
2022-11-17T09:54:50.906Z,62.69
2022-11-17T09:57:30.300Z,63.40
2022-11-17T10:00:06.223Z,63.83
2022-11-17T10:02:34.365Z,62.69
2022-11-17T10:05:02.529Z,62.31
2022-11-17T10:07:33.343Z,61.66
2022-11-17T10:10:03.502Z,61.52
2022-11-17T10:12:40.301Z,62.27
2022-11-17T10:15:22.610Z,62.25
2022-11-17T10:17:55.847Z,62.34
2022-11-17T10:20:24.265Z,62.80
2022-11-17T10:22:55.065Z,62.12
2022-11-17T10:25:38.382Z,62.03
2022-11-17T10:28:10.383Z,62.61
2022-11-17T10:30:38.579Z,62.87
2022-11-17T10:33:06.375Z,63.73
2022-11-17T10:35:36.289Z,63.78
2022-11-17T10:38:07.158Z,64.05
2022-11-17T10:40:49.914Z,64.48
2022-11-17T10:43:24.772Z,63.92
2022-11-17T10:45:55.687Z,64.31
2022-11-17T10:48:28.946Z,64.51
2022-11-17T10:50:58.677Z,64.44
2022-11-17T10:53:43.039Z,64.56
2022-11-17T10:56:15.726Z,64.31
2022-11-17T10:59:15.502Z,64.23
2022-11-17T11:01:45.560Z,63.76
2022-11-17T11:04:30.276Z,63.79
2022-11-17T11:07:13.186Z,63.58
2022-11-17T11:09:51.310Z,63.33
2022-11-17T11:12:26.124Z,63.23
2022-11-17T11:14:58.758Z,62.66
2022-11-17T11:17:29.197Z,62.14
2022-11-17T11:19:58.013Z,62.26
2022-11-17T11:22:36.626Z,61.35
2022-11-17T11:25:15.856Z,62.21
2022-11-17T11:27:57.803Z,61.68
2022-11-17T11:30:28.336Z,61.64
2022-11-17T11:33:08.207Z,61.68
2022-11-17T11:35:56.315Z,62.34
2022-11-17T11:38:45.043Z,62.13
2022-11-17T11:41:24.570Z,61.66
2022-11-17T11:44:07.568Z,61.39
2022-11-17T11:46:47.382Z,61.50
2022-11-17T11:49:24.047Z,61.67
2022-11-17T11:51:56.794Z,61.53
2022-11-17T11:54:33.923Z,62.18
2022-11-17T11:57:02.181Z,62.11
2022-11-17T11:59:42.131Z,61.94
2022-11-17T12:02:26.703Z,61.25
2022-11-17T12:05:05.669Z,61.04
2022-11-17T12:07:41.676Z,61.75
2022-11-17T12:10:18.994Z,61.20
2022-11-17T12:12:48.285Z,61.12
2022-11-17T12:15:37.088Z,61.13
2022-11-17T12:18:13.188Z,61.16
2022-11-17T12:20:55.406Z,61.42
2022-11-17T12:23:50.662Z,60.55
2022-11-17T12:26:25.178Z,60.54
2022-11-17T12:29:29.277Z,60.23
2022-11-17T12:31:59.115Z,59.66
2022-11-17T12:34:31.696Z,59.71
2022-11-17T12:37:23.295Z,59.59
2022-11-17T12:40:06.690Z,60.14
2022-11-17T12:42:36.534Z,60.32
2022-11-17T12:45:07.508Z,60.50
2022-11-17T12:47:37.605Z,60.39
2022-11-17T12:50:27.721Z,60.75
2022-11-17T12:53:07.671Z,60.87
2022-11-17T12:55:49.203Z,60.34
2022-11-17T12:58:24.675Z,60.23
2022-11-17T13:01:02.997Z,60.19
2022-11-17T13:03:44.103Z,60.30
2022-11-17T13:09:07.751Z,59.96
2022-11-17T13:11:36.249Z,59.84
2022-11-17T13:14:12.402Z,59.59
2022-11-17T13:16:46.176Z,59.64
2022-11-17T13:19:34.126Z,59.43
2022-11-17T13:22:07.595Z,58.88
2022-11-17T13:24:38.528Z,59.05
2022-11-17T13:27:08.808Z,58.14
2022-11-17T13:29:41.169Z,59.09
2022-11-17T13:32:14.868Z,58.85
2022-11-17T13:34:51.909Z,58.69
2022-11-17T13:37:24.108Z,58.65
2022-11-17T13:40:01.146Z,58.70
2022-11-17T13:42:33.055Z,58.88
2022-11-17T13:45:07.851Z,59.06
2022-11-17T13:47:45.812Z,58.24
2022-11-17T13:50:37.301Z,58.31
2022-11-17T13:53:27.197Z,58.49
2022-11-17T13:55:55.161Z,58.42
2022-11-17T13:58:30.766Z,58.09
2022-11-17T14:01:00.118Z,57.96
2022-11-17T14:03:39.917Z,58.71
2022-11-17T14:06:10.141Z,57.88
2022-11-17T14:08:41.801Z,57.76
2022-11-17T14:11:21.489Z,57.67
2022-11-17T14:13:52.929Z,57.72
2022-11-17T14:16:25.152Z,57.76
2022-11-17T14:19:02.999Z,57.17
2022-11-17T14:21:32.311Z,57.41
2022-11-17T14:24:08.312Z,57.73
2022-11-17T14:26:36.378Z,57.51
2022-11-17T14:29:04.281Z,57.99
2022-11-17T14:31:34.390Z,57.50
2022-11-17T14:34:02.591Z,57.92
2022-11-17T14:36:33.094Z,57.60
2022-11-17T14:39:02.281Z,57.92
2022-11-17T14:41:32.628Z,57.54
2022-11-17T14:44:00.727Z,57.72
2022-11-17T14:46:28.881Z,57.67
2022-11-17T14:48:57.203Z,57.71
2022-11-17T14:51:25.705Z,57.92
2022-11-17T14:53:54.256Z,57.76
2022-11-17T14:56:24.548Z,57.56
2022-11-17T14:58:57.237Z,58.24
2022-11-17T15:01:29.177Z,58.34
2022-11-17T15:03:58.621Z,58.35
2022-11-17T15:06:29.627Z,58.91
2022-11-17T15:08:59.927Z,58.63
2022-11-17T15:11:31.928Z,58.34
2022-11-17T15:14:05.351Z,58.50
2022-11-17T15:16:34.245Z,58.87
2022-11-17T15:19:03.922Z,58.33
2022-11-17T15:21:32.003Z,58.43
2022-11-17T15:24:00.247Z,58.02
2022-11-17T15:26:28.690Z,58.11
2022-11-17T15:28:57.948Z,58.09
2022-11-17T15:31:27.722Z,58.05
2022-11-17T15:33:56.087Z,57.79
2022-11-17T15:36:24.760Z,58.06
2022-11-17T15:38:53.439Z,57.78
2022-11-17T15:41:21.822Z,58.32
2022-11-17T15:43:49.922Z,57.70
2022-11-17T15:46:20.116Z,58.17
2022-11-17T15:48:52.540Z,57.96
2022-11-17T15:51:22.681Z,57.53
2022-11-17T15:53:52.514Z,57.48
2022-11-17T15:56:22.032Z,58.08
2022-11-17T15:58:55.922Z,57.94
2022-11-17T16:06:50.009Z,58.64
2022-11-17T16:12:51.383Z,58.35
2022-11-17T16:15:32.289Z,58.41
2022-11-17T16:18:00.680Z,59.75
2022-11-17T17:49:36.274Z,61.27
2022-11-17T17:52:08.492Z,60.66
2022-11-17T17:54:41.319Z,61.10
2022-11-17T17:57:12.742Z,61.25
2022-11-17T17:59:41.351Z,61.18
2022-11-17T18:02:15.370Z,61.63
2022-11-17T18:04:45.310Z,61.33
2022-11-17T18:07:19.838Z,60.90
2022-11-17T18:09:48.452Z,61.39
2022-11-17T18:12:17.715Z,61.59
2022-11-17T18:14:47.251Z,61.18
2022-11-17T18:17:19.046Z,61.18
2022-11-17T18:19:54.321Z,61.36
2022-11-17T18:22:22.867Z,61.76
2022-11-17T18:24:58.393Z,61.52
2022-11-17T18:27:27.398Z,61.42
2022-11-17T18:29:55.981Z,61.30
2022-11-17T18:32:24.492Z,61.57
2022-11-17T18:34:54.619Z,61.39
2022-11-17T18:37:22.773Z,61.44
2022-11-17T18:39:51.350Z,62.05
2022-11-17T18:42:19.879Z,61.74
2022-11-17T18:44:49.801Z,61.56
2022-11-17T18:47:20.449Z,62.27
2022-11-17T18:49:52.688Z,61.95
2022-11-17T18:52:24.883Z,61.97
2022-11-17T21:29:36.603Z,64.39
2022-11-17T21:32:08.010Z,64.68
2022-11-17T21:34:38.733Z,64.27
2022-11-17T21:37:12.316Z,64.73
